sensor_id;sensor_type;location;lat;lon;timestamp;noise_LAeq;noise_LA_min;noise_LA_max;noise_LA01;noise_LA95
72978;Laerm;61167;55.884;37.524;2023-03-11T00:00:37;41.50;37.21;48.69;;
72978;Laerm;61167;55.884;37.524;2023-03-11T00:01:38;41.61;37.39;46.60;;
72978;Laerm;61167;55.884;37.524;2023-03-11T00:02:39;42.75;38.41;49.70;;
72978;Laerm;61167;55.884;37.524;2023-03-11T00:03:40;40.79;36.58;45.82;;
72978;Laerm;61167;55.884;37.524;2023-03-11T00:04:40;43.93;37.99;50.82;;
72978;Laerm;61167;55.884;37.524;2023-03-11T00:05:41;42.92;38.06;48.27;;
72978;Laerm;61167;55.884;37.524;2023-03-11T00:06:42;42.92;38.04;49.84;;
72978;Laerm;61167;55.884;37.524;2023-03-11T00:07:43;42.29;37.44;52.63;;
72978;Laerm;61167;55.884;37.524;2023-03-11T00:08:43;41.52;38.28;46.45;;
72978;Laerm;61167;55.884;37.524;2023-03-11T00:09:43;42.17;36.92;54.75;;
72978;Laerm;61167;55.884;37.524;2023-03-11T00:10:46;41.56;37.10;54.36;;
72978;Laerm;61167;55.884;37.524;2023-03-11T00:11:46;40.70;36.02;45.82;;
72978;Laerm;61167;55.884;37.524;2023-03-11T00:12:46;44.04;38.22;53.97;;
72978;Laerm;61167;55.884;37.524;2023-03-11T00:13:47;41.81;37.25;50.12;;
72978;Laerm;61167;55.884;37.524;2023-03-11T00:14:47;42.86;39.40;48.52;;
72978;Laerm;61167;55.884;37.524;2023-03-11T00:15:48;43.41;39.93;47.10;;
72978;Laerm;61167;55.884;37.524;2023-03-11T00:16:49;42.64;39.40;47.25;;
72978;Laerm;61167;55.884;37.524;2023-03-11T00:17:51;42.55;39.39;46.30;;
72978;Laerm;61167;55.884;37.524;2023-03-11T00:18:51;43.14;39.44;47.04;;
72978;Laerm;61167;55.884;37.524;2023-03-11T00:19:52;43.03;40.01;46.48;;
72978;Laerm;61167;55.884;37.524;2023-03-11T00:20:53;44.08;40.21;48.38;;
72978;Laerm;61167;55.884;37.524;2023-03-11T00:21:54;44.88;39.49;54.41;;
72978;Laerm;61167;55.884;37.524;2023-03-11T00:22:54;43.96;39.73;47.33;;
72978;Laerm;61167;55.884;37.524;2023-03-11T00:23:55;43.38;39.64;48.60;;
72978;Laerm;61167;55.884;37.524;2023-03-11T00:24:57;44.11;40.57;48.92;;
72978;Laerm;61167;55.884;37.524;2023-03-11T00:25:57;45.12;40.46;53.52;;
72978;Laerm;61167;55.884;37.524;2023-03-11T00:27:00;44.17;40.24;50.54;;
72978;Laerm;61167;55.884;37.524;2023-03-11T00:28:00;44.44;40.80;56.83;;
72978;Laerm;61167;55.884;37.524;2023-03-11T00:29:00;45.85;40.39;53.09;;
72978;Laerm;61167;55.884;37.524;2023-03-11T00:30:01;44.12;40.05;51.52;;
72978;Laerm;61167;55.884;37.524;2023-03-11T00:31:01;44.84;39.62;51.01;;
72978;Laerm;61167;55.884;37.524;2023-03-11T00:32:01;47.50;40.46;63.05;;
72978;Laerm;61167;55.884;37.524;2023-03-11T00:33:02;44.61;40.36;50.98;;
72978;Laerm;61167;55.884;37.524;2023-03-11T00:34:02;43.45;39.09;49.58;;
72978;Laerm;61167;55.884;37.524;2023-03-11T00:35:03;43.92;39.99;49.02;;
72978;Laerm;61167;55.884;37.524;2023-03-11T00:36:04;43.48;39.98;55.11;;
72978;Laerm;61167;55.884;37.524;2023-03-11T00:37:06;42.98;39.51;48.96;;
72978;Laerm;61167;55.884;37.524;2023-03-11T00:38:07;42.83;38.60;46.05;;
72978;Laerm;61167;55.884;37.524;2023-03-11T00:39:08;43.90;39.53;48.06;;
72978;Laerm;61167;55.884;37.524;2023-03-11T00:40:11;44.86;39.95;50.50;;
72978;Laerm;61167;55.884;37.524;2023-03-11T00:41:12;44.42;40.17;48.57;;
72978;Laerm;61167;55.884;37.524;2023-03-11T00:42:12;44.38;40.46;51.03;;
72978;Laerm;61167;55.884;37.524;2023-03-11T00:43:13;44.89;39.95;52.91;;
72978;Laerm;61167;55.884;37.524;2023-03-11T00:44:13;44.31;36.68;55.04;;
72978;Laerm;61167;55.884;37.524;2023-03-11T00:45:14;42.09;38.12;53.47;;
72978;Laerm;61167;55.884;37.524;2023-03-11T00:46:14;40.45;37.05;47.92;;
72978;Laerm;61167;55.884;37.524;2023-03-11T00:47:14;40.08;36.87;43.37;;
72978;Laerm;61167;55.884;37.524;2023-03-11T00:48:15;42.04;38.12;47.81;;
72978;Laerm;61167;55.884;37.524;2023-03-11T00:49:15;45.58;38.47;57.39;;
72978;Laerm;61167;55.884;37.524;2023-03-11T00:50:17;47.92;38.82;61.14;;
72978;Laerm;61167;55.884;37.524;2023-03-11T00:51:18;45.90;39.65;51.68;;
72978;Laerm;61167;55.884;37.524;2023-03-11T00:52:18;46.77;37.12;58.96;;
72978;Laerm;61167;55.884;37.524;2023-03-11T00:53:18;45.90;38.50;55.14;;
72978;Laerm;61167;55.884;37.524;2023-03-11T00:54:19;41.58;37.34;50.19;;
72978;Laerm;61167;55.884;37.524;2023-03-11T00:55:21;42.19;38.16;50.19;;
72978;Laerm;61167;55.884;37.524;2023-03-11T00:56:21;43.09;37.46;49.08;;
72978;Laerm;61167;55.884;37.524;2023-03-11T00:57:22;41.53;37.46;49.58;;
72978;Laerm;61167;55.884;37.524;2023-03-11T00:58:22;41.90;36.79;48.11;;
72978;Laerm;61167;55.884;37.524;2023-03-11T00:59:26;40.86;36.93;50.44;;
72978;Laerm;61167;55.884;37.524;2023-03-11T01:00:27;43.33;37.97;49.51;;
72978;Laerm;61167;55.884;37.524;2023-03-11T01:01:27;41.64;37.66;51.65;;
72978;Laerm;61167;55.884;37.524;2023-03-11T01:02:27;41.89;37.71;49.37;;
72978;Laerm;61167;55.884;37.524;2023-03-11T01:03:28;44.96;38.42;53.80;;
72978;Laerm;61167;55.884;37.524;2023-03-11T01:04:28;43.89;40.46;48.94;;
72978;Laerm;61167;55.884;37.524;2023-03-11T01:05:30;42.42;39.32;47.01;;
72978;Laerm;61167;55.884;37.524;2023-03-11T01:06:31;43.05;38.61;52.74;;
72978;Laerm;61167;55.884;37.524;2023-03-11T01:07:31;44.37;36.92;52.05;;
72978;Laerm;61167;55.884;37.524;2023-03-11T01:08:32;39.44;36.30;43.12;;
72978;Laerm;61167;55.884;37.524;2023-03-11T01:09:33;44.41;36.93;52.08;;
72978;Laerm;61167;55.884;37.524;2023-03-11T01:10:33;43.22;37.64;50.35;;
72978;Laerm;61167;55.884;37.524;2023-03-11T01:11:34;42.10;37.57;46.21;;
72978;Laerm;61167;55.884;37.524;2023-03-11T01:12:34;40.51;37.28;44.91;;
72978;Laerm;61167;55.884;37.524;2023-03-11T01:13:34;40.59;36.31;45.29;;
72978;Laerm;61167;55.884;37.524;2023-03-11T01:14:35;42.07;36.86;52.68;;
72978;Laerm;61167;55.884;37.524;2023-03-11T01:15:35;40.42;36.24;45.70;;
72978;Laerm;61167;55.884;37.524;2023-03-11T01:16:36;42.20;34.99;52.00;;
72978;Laerm;61167;55.884;37.524;2023-03-11T01:17:36;42.75;36.57;50.22;;
72978;Laerm;61167;55.884;37.524;2023-03-11T01:18:36;40.85;37.24;45.30;;
72978;Laerm;61167;55.884;37.524;2023-03-11T01:19:37;43.99;37.80;53.45;;
72978;Laerm;61167;55.884;37.524;2023-03-11T01:20:37;41.08;37.74;49.62;;
72978;Laerm;61167;55.884;37.524;2023-03-11T01:21:37;43.65;37.08;50.90;;
72978;Laerm;61167;55.884;37.524;2023-03-11T01:22:38;40.49;36.75;44.54;;
72978;Laerm;61167;55.884;37.524;2023-03-11T01:23:39;40.12;36.60;50.41;;
72978;Laerm;61167;55.884;37.524;2023-03-11T01:24:39;40.60;36.86;47.63;;
72978;Laerm;61167;55.884;37.524;2023-03-11T01:25:39;41.13;36.77;45.47;;
72978;Laerm;61167;55.884;37.524;2023-03-11T01:26:40;40.42;36.39;44.77;;
72978;Laerm;61167;55.884;37.524;2023-03-11T01:27:40;39.69;36.39;42.70;;
72978;Laerm;61167;55.884;37.524;2023-03-11T01:28:41;40.11;36.87;44.42;;
72978;Laerm;61167;55.884;37.524;2023-03-11T01:29:41;41.29;37.07;46.93;;
72978;Laerm;61167;55.884;37.524;2023-03-11T01:30:42;42.02;37.86;51.54;;
72978;Laerm;61167;55.884;37.524;2023-03-11T01:31:42;42.18;37.43;49.08;;
72978;Laerm;61167;55.884;37.524;2023-03-11T01:32:42;41.92;37.74;45.80;;
72978;Laerm;61167;55.884;37.524;2023-03-11T01:33:43;42.66;37.54;47.84;;
72978;Laerm;61167;55.884;37.524;2023-03-11T01:34:43;42.67;37.78;50.00;;
72978;Laerm;61167;55.884;37.524;2023-03-11T01:35:45;44.09;39.20;50.71;;
72978;Laerm;61167;55.884;37.524;2023-03-11T01:36:46;43.44;38.16;51.48;;
72978;Laerm;61167;55.884;37.524;2023-03-11T01:37:46;43.47;38.57;63.48;;
72978;Laerm;61167;55.884;37.524;2023-03-11T01:38:46;41.66;38.54;49.70;;
72978;Laerm;61167;55.884;37.524;2023-03-11T01:39:47;42.22;37.99;48.89;;
72978;Laerm;61167;55.884;37.524;2023-03-11T01:40:48;42.19;38.03;47.51;;
72978;Laerm;61167;55.884;37.524;2023-03-11T01:41:49;41.33;37.98;45.04;;
72978;Laerm;61167;55.884;37.524;2023-03-11T01:42:49;42.36;37.51;50.08;;
72978;Laerm;61167;55.884;37.524;2023-03-11T01:43:51;42.09;37.45;46.71;;
72978;Laerm;61167;55.884;37.524;2023-03-11T01:44:53;44.12;37.30;49.38;;
72978;Laerm;61167;55.884;37.524;2023-03-11T01:47:58;41.81;36.91;47.55;;
72978;Laerm;61167;55.884;37.524;2023-03-11T01:49:00;41.54;38.38;53.12;;
72978;Laerm;61167;55.884;37.524;2023-03-11T01:50:01;42.67;37.91;56.76;;
72978;Laerm;61167;55.884;37.524;2023-03-11T01:51:02;41.28;37.34;46.41;;
72978;Laerm;61167;55.884;37.524;2023-03-11T01:52:03;42.00;37.24;53.33;;
72978;Laerm;61167;55.884;37.524;2023-03-11T01:53:06;41.97;37.18;49.14;;
72978;Laerm;61167;55.884;37.524;2023-03-11T01:54:09;41.91;37.61;47.87;;
72978;Laerm;61167;55.884;37.524;2023-03-11T01:55:11;41.59;37.42;45.34;;
72978;Laerm;61167;55.884;37.524;2023-03-11T01:56:12;41.95;37.58;46.74;;
72978;Laerm;61167;55.884;37.524;2023-03-11T01:57:12;42.57;37.38;47.75;;
72978;Laerm;61167;55.884;37.524;2023-03-11T01:58:15;46.49;39.50;57.01;;
72978;Laerm;61167;55.884;37.524;2023-03-11T01:59:18;47.43;39.68;57.69;;
72978;Laerm;61167;55.884;37.524;2023-03-11T02:00:20;44.19;39.61;49.81;;
72978;Laerm;61167;55.884;37.524;2023-03-11T02:01:21;42.64;38.73;46.89;;
72978;Laerm;61167;55.884;37.524;2023-03-11T02:02:23;45.70;38.87;54.03;;
72978;Laerm;61167;55.884;37.524;2023-03-11T02:03:26;42.54;37.25;56.71;;
72978;Laerm;61167;55.884;37.524;2023-03-11T02:04:28;42.10;38.13;46.16;;
72978;Laerm;61167;55.884;37.524;2023-03-11T02:05:28;43.25;38.53;54.09;;
72978;Laerm;61167;55.884;37.524;2023-03-11T02:06:29;42.35;38.77;46.71;;
72978;Laerm;61167;55.884;37.524;2023-03-11T02:07:31;42.63;38.07;50.90;;
72978;Laerm;61167;55.884;37.524;2023-03-11T02:08:32;43.29;38.20;56.82;;
72978;Laerm;61167;55.884;37.524;2023-03-11T02:09:33;43.98;40.06;48.46;;
72978;Laerm;61167;55.884;37.524;2023-03-11T02:10:33;44.94;38.10;52.49;;
72978;Laerm;61167;55.884;37.524;2023-03-11T02:11:34;45.04;39.89;51.17;;
72978;Laerm;61167;55.884;37.524;2023-03-11T02:12:35;42.75;37.98;52.51;;
72978;Laerm;61167;55.884;37.524;2023-03-11T02:13:36;42.37;37.64;48.20;;
72978;Laerm;61167;55.884;37.524;2023-03-11T02:14:39;41.46;38.07;45.04;;
72978;Laerm;61167;55.884;37.524;2023-03-11T02:15:41;42.49;38.74;55.06;;
72978;Laerm;61167;55.884;37.524;2023-03-11T02:16:41;43.59;37.88;59.76;;
72978;Laerm;61167;55.884;37.524;2023-03-11T02:17:41;44.16;37.76;53.30;;
72978;Laerm;61167;55.884;37.524;2023-03-11T02:18:42;43.34;38.21;54.42;;
72978;Laerm;61167;55.884;37.524;2023-03-11T02:21:12;42.67;38.23;51.77;;
72978;Laerm;61167;55.884;37.524;2023-03-11T02:22:15;43.26;38.27;48.68;;
72978;Laerm;61167;55.884;37.524;2023-03-11T02:23:16;42.41;38.04;47.86;;
72978;Laerm;61167;55.884;37.524;2023-03-11T02:24:20;45.26;39.91;53.99;;
72978;Laerm;61167;55.884;37.524;2023-03-11T02:25:42;48.11;39.05;57.38;;
72978;Laerm;61167;55.884;37.524;2023-03-11T02:27:48;43.54;38.42;54.40;;
72978;Laerm;61167;55.884;37.524;2023-03-11T02:28:51;43.40;39.53;47.94;;
72978;Laerm;61167;55.884;37.524;2023-03-11T02:29:52;45.49;39.68;64.34;;
72978;Laerm;61167;55.884;37.524;2023-03-11T02:30:53;43.90;39.64;48.53;;
72978;Laerm;61167;55.884;37.524;2023-03-11T02:31:55;44.22;39.95;50.86;;
72978;Laerm;61167;55.884;37.524;2023-03-11T02:32:55;43.45;40.05;47.52;;
72978;Laerm;61167;55.884;37.524;2023-03-11T02:33:56;43.19;38.64;48.88;;
72978;Laerm;61167;55.884;37.524;2023-03-11T02:34:58;43.59;39.94;55.04;;
72978;Laerm;61167;55.884;37.524;2023-03-11T02:35:59;44.32;40.08;48.12;;
72978;Laerm;61167;55.884;37.524;2023-03-11T02:36:59;43.03;39.30;48.39;;
72978;Laerm;61167;55.884;37.524;2023-03-11T02:38:00;43.66;39.39;49.44;;
72978;Laerm;61167;55.884;37.524;2023-03-11T02:39:01;45.72;38.69;68.26;;
72978;Laerm;61167;55.884;37.524;2023-03-11T02:41:20;44.95;40.88;53.75;;
72978;Laerm;61167;55.884;37.524;2023-03-11T02:42:30;45.86;40.92;52.56;;
72978;Laerm;61167;55.884;37.524;2023-03-11T02:43:41;45.39;41.14;49.60;;
72978;Laerm;61167;55.884;37.524;2023-03-11T02:44:43;49.26;41.99;56.51;;
72978;Laerm;61167;55.884;37.524;2023-03-11T02:45:46;46.00;42.08;53.88;;
72978;Laerm;61167;55.884;37.524;2023-03-11T02:46:47;45.54;40.32;56.48;;
72978;Laerm;61167;55.884;37.524;2023-03-11T02:47:48;48.22;40.54;58.66;;
72978;Laerm;61167;55.884;37.524;2023-03-11T02:48:49;44.60;40.93;52.10;;
72978;Laerm;61167;55.884;37.524;2023-03-11T02:49:50;45.27;39.63;55.56;;
72978;Laerm;61167;55.884;37.524;2023-03-11T02:50:51;44.77;40.54;49.33;;
72978;Laerm;61167;55.884;37.524;2023-03-11T02:51:52;45.75;40.85;56.00;;
72978;Laerm;61167;55.884;37.524;2023-03-11T02:52:52;45.48;41.51;57.33;;
72978;Laerm;61167;55.884;37.524;2023-03-11T02:53:54;46.29;41.65;57.88;;
72978;Laerm;61167;55.884;37.524;2023-03-11T02:54:56;46.05;40.41;58.48;;
72978;Laerm;61167;55.884;37.524;2023-03-11T02:55:56;46.17;41.32;56.17;;
72978;Laerm;61167;55.884;37.524;2023-03-11T02:56:57;46.53;41.41;56.69;;
72978;Laerm;61167;55.884;37.524;2023-03-11T02:57:57;43.97;40.47;54.12;;
72978;Laerm;61167;55.884;37.524;2023-03-11T02:58:57;48.31;41.41;61.54;;
72978;Laerm;61167;55.884;37.524;2023-03-11T02:59:58;43.96;39.62;50.42;;
72978;Laerm;61167;55.884;37.524;2023-03-11T03:01:01;45.30;41.13;61.07;;
72978;Laerm;61167;55.884;37.524;2023-03-11T03:02:02;44.58;41.38;53.81;;
72978;Laerm;61167;55.884;37.524;2023-03-11T03:03:02;45.09;41.82;54.47;;
72978;Laerm;61167;55.884;37.524;2023-03-11T03:04:03;46.48;41.73;63.42;;
72978;Laerm;61167;55.884;37.524;2023-03-11T03:05:03;44.55;40.74;50.46;;
72978;Laerm;61167;55.884;37.524;2023-03-11T03:06:05;45.11;41.83;56.11;;
72978;Laerm;61167;55.884;37.524;2023-03-11T03:07:05;44.99;40.58;54.82;;
72978;Laerm;61167;55.884;37.524;2023-03-11T03:08:06;45.08;40.61;52.56;;
72978;Laerm;61167;55.884;37.524;2023-03-11T03:09:06;46.16;41.50;54.44;;
72978;Laerm;61167;55.884;37.524;2023-03-11T03:10:06;46.28;41.51;53.91;;
72978;Laerm;61167;55.884;37.524;2023-03-11T03:11:07;45.55;41.18;53.06;;
72978;Laerm;61167;55.884;37.524;2023-03-11T03:12:07;44.72;41.13;50.20;;
72978;Laerm;61167;55.884;37.524;2023-03-11T03:13:08;45.41;42.03;49.28;;
72978;Laerm;61167;55.884;37.524;2023-03-11T03:14:08;46.11;41.83;56.34;;
72978;Laerm;61167;55.884;37.524;2023-03-11T03:15:08;49.20;41.73;68.51;;
72978;Laerm;61167;55.884;37.524;2023-03-11T03:16:09;46.99;43.07;56.80;;
72978;Laerm;61167;55.884;37.524;2023-03-11T03:17:10;49.68;41.77;68.96;;
72978;Laerm;61167;55.884;37.524;2023-03-11T03:18:10;45.62;41.45;54.28;;
72978;Laerm;61167;55.884;37.524;2023-03-11T03:19:10;45.41;41.55;54.91;;
72978;Laerm;61167;55.884;37.524;2023-03-11T03:20:11;45.85;41.18;58.59;;
72978;Laerm;61167;55.884;37.524;2023-03-11T03:21:12;44.76;41.24;50.41;;
72978;Laerm;61167;55.884;37.524;2023-03-11T03:22:13;46.04;39.52;56.81;;
72978;Laerm;61167;55.884;37.524;2023-03-11T03:23:13;43.91;39.38;58.59;;
72978;Laerm;61167;55.884;37.524;2023-03-11T03:24:14;44.98;40.20;49.27;;
72978;Laerm;61167;55.884;37.524;2023-03-11T03:25:14;45.56;41.92;55.51;;
72978;Laerm;61167;55.884;37.524;2023-03-11T03:26:15;45.63;41.67;50.08;;
72978;Laerm;61167;55.884;37.524;2023-03-11T03:27:15;45.28;40.72;62.17;;
72978;Laerm;61167;55.884;37.524;2023-03-11T03:28:15;45.41;40.25;55.77;;
72978;Laerm;61167;55.884;37.524;2023-03-11T03:29:16;47.66;43.05;53.50;;
72978;Laerm;61167;55.884;37.524;2023-03-11T03:30:16;46.75;42.55;51.12;;
72978;Laerm;61167;55.884;37.524;2023-03-11T03:31:17;47.05;42.13;53.08;;
72978;Laerm;61167;55.884;37.524;2023-03-11T03:32:17;47.89;43.02;63.04;;
72978;Laerm;61167;55.884;37.524;2023-03-11T03:33:17;51.35;40.57;80.28;;
72978;Laerm;61167;55.884;37.524;2023-03-11T03:34:18;47.84;42.12;60.72;;
72978;Laerm;61167;55.884;37.524;2023-03-11T03:35:18;45.42;41.86;52.98;;
72978;Laerm;61167;55.884;37.524;2023-03-11T03:36:18;46.85;42.61;54.88;;
72978;Laerm;61167;55.884;37.524;2023-03-11T03:37:18;47.73;43.05;61.43;;
72978;Laerm;61167;55.884;37.524;2023-03-11T03:38:19;51.26;43.67;62.93;;
72978;Laerm;61167;55.884;37.524;2023-03-11T03:39:19;46.86;43.46;55.18;;
72978;Laerm;61167;55.884;37.524;2023-03-11T03:40:20;49.18;43.66;62.61;;
72978;Laerm;61167;55.884;37.524;2023-03-11T03:41:20;48.76;43.37;53.74;;
72978;Laerm;61167;55.884;37.524;2023-03-11T03:42:20;48.19;42.75;54.16;;
72978;Laerm;61167;55.884;37.524;2023-03-11T03:43:21;46.66;42.33;53.80;;
72978;Laerm;61167;55.884;37.524;2023-03-11T03:44:21;47.96;43.04;62.83;;
72978;Laerm;61167;55.884;37.524;2023-03-11T03:45:21;53.37;43.93;73.75;;
72978;Laerm;61167;55.884;37.524;2023-03-11T03:46:22;47.00;43.07;56.51;;
72978;Laerm;61167;55.884;37.524;2023-03-11T03:47:22;48.73;43.08;62.48;;
72978;Laerm;61167;55.884;37.524;2023-03-11T03:48:23;46.92;42.34;56.29;;
72978;Laerm;61167;55.884;37.524;2023-03-11T03:49:23;46.80;41.71;54.03;;
72978;Laerm;61167;55.884;37.524;2023-03-11T03:50:23;45.95;42.88;55.83;;
72978;Laerm;61167;55.884;37.524;2023-03-11T03:51:24;48.57;42.71;67.26;;
72978;Laerm;61167;55.884;37.524;2023-03-11T03:52:24;46.34;43.43;52.09;;
72978;Laerm;61167;55.884;37.524;2023-03-11T03:53:24;48.67;42.69;57.07;;
72978;Laerm;61167;55.884;37.524;2023-03-11T03:54:25;46.86;41.39;59.88;;
72978;Laerm;61167;55.884;37.524;2023-03-11T03:55:25;46.78;41.97;60.82;;
72978;Laerm;61167;55.884;37.524;2023-03-11T03:56:25;46.17;42.97;52.94;;
72978;Laerm;61167;55.884;37.524;2023-03-11T03:57:27;48.02;43.62;52.55;;
72978;Laerm;61167;55.884;37.524;2023-03-11T03:58:27;46.57;42.33;58.98;;
72978;Laerm;61167;55.884;37.524;2023-03-11T03:59:28;51.34;43.51;66.43;;
72978;Laerm;61167;55.884;37.524;2023-03-11T04:00:28;47.71;43.09;62.33;;
72978;Laerm;61167;55.884;37.524;2023-03-11T04:01:28;48.21;43.27;61.23;;
72978;Laerm;61167;55.884;37.524;2023-03-11T04:02:29;49.72;43.96;56.20;;
72978;Laerm;61167;55.884;37.524;2023-03-11T04:03:30;51.47;44.37;59.98;;
72978;Laerm;61167;55.884;37.524;2023-03-11T04:04:30;48.84;43.95;64.39;;
72978;Laerm;61167;55.884;37.524;2023-03-11T04:05:31;49.32;44.73;56.88;;
72978;Laerm;61167;55.884;37.524;2023-03-11T04:06:31;50.45;43.99;57.12;;
72978;Laerm;61167;55.884;37.524;2023-03-11T04:07:34;47.15;43.21;50.96;;
72978;Laerm;61167;55.884;37.524;2023-03-11T04:08:35;48.67;44.65;63.28;;
72978;Laerm;61167;55.884;37.524;2023-03-11T04:09:38;49.82;45.44;61.79;;
72978;Laerm;61167;55.884;37.524;2023-03-11T04:10:39;51.06;45.84;59.72;;
72978;Laerm;61167;55.884;37.524;2023-03-11T04:11:39;53.23;46.88;64.29;;
72978;Laerm;61167;55.884;37.524;2023-03-11T04:12:39;50.89;44.65;69.03;;
72978;Laerm;61167;55.884;37.524;2023-03-11T04:13:39;48.05;44.21;57.43;;
72978;Laerm;61167;55.884;37.524;2023-03-11T04:14:40;47.55;42.55;52.90;;
72978;Laerm;61167;55.884;37.524;2023-03-11T04:15:41;47.19;43.57;53.67;;
72978;Laerm;61167;55.884;37.524;2023-03-11T04:16:41;51.48;43.88;66.56;;
72978;Laerm;61167;55.884;37.524;2023-03-11T04:17:41;50.80;43.42;69.37;;
72978;Laerm;61167;55.884;37.524;2023-03-11T04:18:42;50.24;43.75;66.12;;
72978;Laerm;61167;55.884;37.524;2023-03-11T04:19:42;49.59;45.02;62.75;;
72978;Laerm;61167;55.884;37.524;2023-03-11T04:20:42;51.40;44.95;60.49;;
72978;Laerm;61167;55.884;37.524;2023-03-11T04:21:43;50.76;46.57;56.24;;
72978;Laerm;61167;55.884;37.524;2023-03-11T04:22:43;51.99;45.29;61.19;;
72978;Laerm;61167;55.884;37.524;2023-03-11T04:23:43;48.26;44.31;52.26;;
72978;Laerm;61167;55.884;37.524;2023-03-11T04:24:44;47.66;43.08;53.30;;
72978;Laerm;61167;55.884;37.524;2023-03-11T04:25:44;48.98;45.31;53.67;;
72978;Laerm;61167;55.884;37.524;2023-03-11T04:26:44;47.38;43.81;51.76;;
72978;Laerm;61167;55.884;37.524;2023-03-11T04:27:45;49.59;44.88;63.28;;
72978;Laerm;61167;55.884;37.524;2023-03-11T04:28:48;48.13;43.97;55.85;;
72978;Laerm;61167;55.884;37.524;2023-03-11T04:29:49;47.47;43.58;53.45;;
72978;Laerm;61167;55.884;37.524;2023-03-11T04:30:49;48.62;44.06;54.97;;
72978;Laerm;61167;55.884;37.524;2023-03-11T04:31:50;47.63;44.37;58.50;;
72978;Laerm;61167;55.884;37.524;2023-03-11T04:32:50;49.07;43.95;56.00;;
72978;Laerm;61167;55.884;37.524;2023-03-11T04:33:50;50.07;44.92;66.68;;
72978;Laerm;61167;55.884;37.524;2023-03-11T04:34:51;51.04;46.33;57.75;;
72978;Laerm;61167;55.884;37.524;2023-03-11T04:35:51;48.44;43.81;54.13;;
72978;Laerm;61167;55.884;37.524;2023-03-11T04:36:52;47.81;44.26;54.20;;
72978;Laerm;61167;55.884;37.524;2023-03-11T04:37:53;48.60;44.79;52.02;;
72978;Laerm;61167;55.884;37.524;2023-03-11T04:38:54;50.15;45.02;61.35;;
72978;Laerm;61167;55.884;37.524;2023-03-11T04:39:54;50.20;45.44;60.33;;
72978;Laerm;61167;55.884;37.524;2023-03-11T04:40:58;48.65;44.96;59.07;;
72978;Laerm;61167;55.884;37.524;2023-03-11T04:41:59;49.73;45.51;56.11;;
72978;Laerm;61167;55.884;37.524;2023-03-11T04:42:59;51.04;45.25;57.71;;
72978;Laerm;61167;55.884;37.524;2023-03-11T04:43:59;52.34;44.25;72.83;;
72978;Laerm;61167;55.884;37.524;2023-03-11T04:45:00;49.43;44.73;56.66;;
72978;Laerm;61167;55.884;37.524;2023-03-11T04:46:00;51.19;44.75;59.62;;
72978;Laerm;61167;55.884;37.524;2023-03-11T04:47:00;49.18;45.10;55.50;;
72978;Laerm;61167;55.884;37.524;2023-03-11T04:48:00;48.09;44.84;51.74;;
72978;Laerm;61167;55.884;37.524;2023-03-11T04:49:01;50.00;45.72;55.19;;
72978;Laerm;61167;55.884;37.524;2023-03-11T04:50:02;48.37;45.12;53.92;;
72978;Laerm;61167;55.884;37.524;2023-03-11T04:51:03;50.46;46.09;54.78;;
72978;Laerm;61167;55.884;37.524;2023-03-11T04:52:03;52.16;46.66;67.96;;
72978;Laerm;61167;55.884;37.524;2023-03-11T04:53:03;49.31;45.09;57.81;;
72978;Laerm;61167;55.884;37.524;2023-03-11T04:54:04;48.55;44.60;54.23;;
72978;Laerm;61167;55.884;37.524;2023-03-11T04:55:05;48.28;44.61;55.34;;
72978;Laerm;61167;55.884;37.524;2023-03-11T04:56:05;50.61;45.14;59.98;;
72978;Laerm;61167;55.884;37.524;2023-03-11T04:57:06;52.39;46.51;59.93;;
72978;Laerm;61167;55.884;37.524;2023-03-11T04:58:06;50.23;45.08;56.79;;
72978;Laerm;61167;55.884;37.524;2023-03-11T04:59:06;50.35;47.12;61.83;;
72978;Laerm;61167;55.884;37.524;2023-03-11T05:00:07;50.08;46.15;62.57;;
72978;Laerm;61167;55.884;37.524;2023-03-11T05:01:11;51.12;46.43;61.58;;
72978;Laerm;61167;55.884;37.524;2023-03-11T05:02:12;50.97;45.48;58.44;;
72978;Laerm;61167;55.884;37.524;2023-03-11T05:03:12;51.90;45.97;60.62;;
72978;Laerm;61167;55.884;37.524;2023-03-11T05:04:12;51.40;47.24;58.36;;
72978;Laerm;61167;55.884;37.524;2023-03-11T05:05:13;52.24;46.88;59.29;;
72978;Laerm;61167;55.884;37.524;2023-03-11T05:06:13;52.12;47.22;66.39;;
72978;Laerm;61167;55.884;37.524;2023-03-11T05:07:13;52.05;47.44;58.00;;
72978;Laerm;61167;55.884;37.524;2023-03-11T05:08:14;52.82;48.19;64.82;;
72978;Laerm;61167;55.884;37.524;2023-03-11T05:09:14;50.78;45.73;56.39;;
72978;Laerm;61167;55.884;37.524;2023-03-11T05:10:15;50.41;45.94;57.94;;
72978;Laerm;61167;55.884;37.524;2023-03-11T05:11:21;49.95;45.94;59.30;;
72978;Laerm;61167;55.884;37.524;2023-03-11T05:12:21;50.52;46.32;59.09;;
72978;Laerm;61167;55.884;37.524;2023-03-11T05:13:21;52.32;48.33;59.05;;
72978;Laerm;61167;55.884;37.524;2023-03-11T05:14:23;53.63;47.81;63.96;;
72978;Laerm;61167;55.884;37.524;2023-03-11T05:15:23;51.66;48.08;60.47;;
72978;Laerm;61167;55.884;37.524;2023-03-11T05:16:23;52.95;47.86;59.54;;
72978;Laerm;61167;55.884;37.524;2023-03-11T05:17:24;51.70;46.75;62.73;;
72978;Laerm;61167;55.884;37.524;2023-03-11T05:18:24;50.93;47.56;54.69;;
72978;Laerm;61167;55.884;37.524;2023-03-11T05:19:24;50.27;46.95;56.58;;
72978;Laerm;61167;55.884;37.524;2023-03-11T05:20:31;50.94;47.88;56.75;;
72978;Laerm;61167;55.884;37.524;2023-03-11T05:21:32;50.85;46.84;57.13;;
72978;Laerm;61167;55.884;37.524;2023-03-11T05:22:32;51.70;46.50;56.77;;
72978;Laerm;61167;55.884;37.524;2023-03-11T05:23:33;51.56;47.33;59.49;;
72978;Laerm;61167;55.884;37.524;2023-03-11T05:24:34;52.07;47.99;60.52;;
72978;Laerm;61167;55.884;37.524;2023-03-11T05:25:34;50.07;46.34;55.44;;
72978;Laerm;61167;55.884;37.524;2023-03-11T05:26:34;49.94;46.23;56.95;;
72978;Laerm;61167;55.884;37.524;2023-03-11T05:27:35;51.18;47.37;57.30;;
72978;Laerm;61167;55.884;37.524;2023-03-11T05:28:35;50.69;47.56;59.15;;
72978;Laerm;61167;55.884;37.524;2023-03-11T05:29:35;51.44;47.71;64.95;;
72978;Laerm;61167;55.884;37.524;2023-03-11T05:30:36;51.90;47.22;73.43;;
72978;Laerm;61167;55.884;37.524;2023-03-11T05:31:36;51.09;47.54;58.99;;
72978;Laerm;61167;55.884;37.524;2023-03-11T05:32:37;50.40;46.27;63.70;;
72978;Laerm;61167;55.884;37.524;2023-03-11T05:33:37;50.73;46.56;56.81;;
72978;Laerm;61167;55.884;37.524;2023-03-11T05:34:38;51.18;46.72;57.70;;
72978;Laerm;61167;55.884;37.524;2023-03-11T05:35:38;50.28;45.90;55.07;;
72978;Laerm;61167;55.884;37.524;2023-03-11T05:36:38;54.85;48.72;64.89;;
72978;Laerm;61167;55.884;37.524;2023-03-11T05:37:39;51.77;47.40;65.18;;
72978;Laerm;61167;55.884;37.524;2023-03-11T05:38:39;52.98;47.55;62.71;;
72978;Laerm;61167;55.884;37.524;2023-03-11T05:39:40;54.54;46.37;65.66;;
72978;Laerm;61167;55.884;37.524;2023-03-11T05:40:40;52.25;47.81;67.08;;
72978;Laerm;61167;55.884;37.524;2023-03-11T05:41:40;49.95;46.50;60.76;;